createdAt,value
2023-05-24T00:00:12.890Z,2.70
2023-05-24T00:02:42.889Z,2.70
2023-05-24T00:05:11.311Z,2.63
2023-05-24T00:07:38.949Z,2.30
2023-05-24T00:10:07.312Z,2.73
2023-05-24T00:12:34.839Z,2.70
2023-05-24T00:15:02.413Z,2.40
2023-05-24T00:17:30.871Z,2.80
2023-05-24T00:19:59.927Z,2.77
2023-05-24T00:22:27.540Z,2.50
2023-05-24T00:24:55.123Z,2.50
2023-05-24T00:27:22.644Z,2.23
2023-05-24T00:29:50.364Z,2.23
2023-05-24T00:32:18.093Z,3.00
2023-05-24T00:34:45.628Z,2.90
2023-05-24T00:37:14.948Z,2.43
2023-05-24T00:39:42.560Z,2.80
2023-05-24T00:42:10.161Z,2.60
2023-05-24T00:44:37.698Z,2.40
2023-05-24T00:47:06.054Z,2.67
2023-05-24T00:49:33.735Z,2.10
2023-05-24T00:52:01.638Z,2.37
2023-05-24T00:54:30.664Z,2.30
2023-05-24T00:56:58.342Z,2.73
2023-05-24T00:59:26.117Z,2.23
2023-05-24T01:01:55.531Z,2.40
2023-05-24T01:04:23.242Z,2.20
2023-05-24T01:06:59.295Z,2.30
2023-05-24T01:09:29.928Z,2.53
2023-05-24T01:12:07.956Z,2.23
2023-05-24T01:14:41.030Z,2.40
2023-05-24T01:17:15.078Z,2.50
2023-05-24T01:19:57.736Z,2.20
2023-05-24T01:22:51.101Z,2.00
2023-05-24T01:25:24.215Z,2.43
2023-05-24T01:27:53.443Z,2.17
2023-05-24T01:30:21.567Z,2.47
2023-05-24T01:32:49.237Z,2.30
2023-05-24T01:35:16.806Z,2.33
2023-05-24T01:37:44.365Z,2.40
2023-05-24T01:40:12.754Z,2.67
2023-05-24T01:42:45.100Z,2.20
2023-05-24T01:45:17.621Z,2.40
2023-05-24T01:47:51.035Z,2.83
2023-05-24T01:50:21.854Z,2.37
2023-05-24T01:52:51.351Z,2.30
2023-05-24T01:55:19.333Z,2.30
2023-05-24T01:57:47.773Z,2.07
2023-05-24T02:00:18.145Z,2.30
2023-05-24T02:02:46.034Z,2.30
2023-05-24T02:05:13.753Z,2.70
2023-05-24T02:07:42.620Z,2.30
2023-05-24T02:10:10.916Z,2.50
2023-05-24T02:12:38.468Z,2.40
2023-05-24T02:15:06.717Z,2.50
2023-05-24T02:17:35.814Z,2.37
2023-05-24T02:20:03.976Z,2.17
2023-05-24T02:22:31.558Z,2.40
2023-05-24T02:24:59.132Z,2.23
2023-05-24T02:27:26.678Z,2.30
2023-05-24T02:29:54.183Z,2.30
2023-05-24T02:32:21.797Z,2.30
2023-05-24T02:34:50.763Z,2.03
2023-05-24T02:37:18.325Z,2.23
2023-05-24T02:39:45.875Z,2.70
2023-05-24T02:42:13.377Z,2.00
2023-05-24T02:44:42.782Z,2.70
2023-05-24T02:47:10.352Z,2.27
2023-05-24T02:49:37.902Z,2.40
2023-05-24T02:52:07.136Z,2.40
2023-05-24T02:54:34.707Z,2.50
2023-05-24T02:57:02.948Z,2.23
2023-05-24T02:59:31.248Z,2.40
2023-05-24T03:01:58.865Z,1.80
2023-05-24T03:04:26.500Z,2.10
2023-05-24T03:06:54.652Z,1.90
2023-05-24T03:09:23.699Z,2.20
2023-05-24T03:11:52.816Z,2.10
2023-05-24T03:14:22.708Z,2.30
2023-05-24T03:16:50.256Z,2.10
2023-05-24T03:19:18.570Z,2.60
2023-05-24T03:21:46.126Z,2.00
2023-05-24T03:24:14.332Z,2.30
2023-05-24T03:26:43.717Z,1.87
2023-05-24T03:29:11.474Z,2.50
2023-05-24T03:31:39.020Z,1.97
2023-05-24T03:34:06.609Z,2.33
2023-05-24T03:36:34.103Z,2.23
2023-05-24T03:39:03.793Z,1.90
2023-05-24T03:41:31.419Z,2.23
2023-05-24T03:44:00.528Z,2.27
2023-05-24T03:46:28.149Z,2.50
2023-05-24T03:48:55.756Z,2.37
2023-05-24T03:51:24.440Z,1.93
2023-05-24T03:53:52.049Z,2.20
2023-05-24T03:56:19.608Z,2.10
2023-05-24T03:58:47.505Z,2.00
2023-05-24T04:01:29.267Z,1.97
2023-05-24T04:04:01.518Z,1.90
2023-05-24T04:06:29.919Z,2.23
2023-05-24T04:08:57.691Z,2.00
2023-05-24T04:11:28.236Z,2.50
2023-05-24T04:13:56.871Z,1.90
2023-05-24T04:16:26.383Z,2.07
2023-05-24T04:18:54.273Z,2.20
2023-05-24T04:21:21.959Z,2.50
2023-05-24T04:23:49.639Z,2.10
2023-05-24T04:26:17.798Z,2.00
2023-05-24T04:28:45.624Z,2.17
2023-05-24T04:31:13.454Z,2.20
2023-05-24T04:33:42.384Z,2.27
2023-05-24T04:36:11.760Z,2.33
2023-05-24T04:38:41.067Z,1.67
2023-05-24T04:41:08.680Z,2.10
2023-05-24T04:43:36.267Z,2.40
2023-05-24T04:46:03.784Z,2.43
2023-05-24T04:48:31.384Z,2.10
2023-05-24T04:51:00.534Z,2.50
2023-05-24T04:53:28.260Z,2.40
2023-05-24T04:55:55.866Z,2.07
2023-05-24T04:58:23.836Z,2.20
2023-05-24T05:00:51.467Z,2.63
2023-05-24T05:03:19.217Z,2.40
2023-05-24T05:05:46.956Z,2.60
2023-05-24T05:08:16.815Z,3.40
2023-05-24T05:10:45.099Z,3.33
2023-05-24T05:13:12.755Z,3.30
2023-05-24T05:15:41.613Z,3.20
2023-05-24T05:18:10.620Z,3.50
2023-05-24T05:20:38.303Z,3.27
2023-05-24T05:23:05.890Z,3.40
2023-05-24T05:25:36.037Z,3.20
2023-05-24T05:28:03.518Z,3.20
2023-05-24T05:30:31.199Z,3.13
2023-05-24T05:32:59.135Z,3.40
2023-05-24T05:35:26.899Z,3.50
2023-05-24T05:37:54.462Z,3.17
2023-05-24T05:40:22.017Z,3.60
2023-05-24T05:42:50.966Z,2.70
2023-05-24T05:45:18.527Z,3.20
2023-05-24T05:47:46.219Z,3.77
2023-05-24T05:50:13.828Z,3.30
2023-05-24T05:52:41.365Z,3.20
2023-05-24T05:55:09.778Z,3.63
2023-05-24T05:57:37.302Z,3.50
2023-05-24T06:00:07.053Z,3.90
2023-05-24T06:02:35.307Z,3.37
2023-05-24T06:05:03.144Z,3.47
2023-05-24T06:07:31.233Z,3.97
2023-05-24T06:09:58.800Z,3.80
2023-05-24T06:12:26.596Z,3.63
2023-05-24T06:14:57.601Z,3.93
2023-05-24T06:17:28.125Z,4.00
2023-05-24T06:19:56.024Z,3.83
2023-05-24T06:22:23.617Z,4.17
2023-05-24T06:24:51.112Z,4.17
2023-05-24T06:27:18.690Z,4.37
2023-05-24T06:29:46.430Z,5.10
2023-05-24T06:32:13.994Z,4.27
2023-05-24T06:34:43.400Z,3.33
2023-05-24T06:37:15.180Z,4.10
2023-05-24T06:39:42.804Z,4.13
2023-05-24T06:42:10.620Z,3.93
2023-05-24T06:44:38.207Z,4.17
2023-05-24T06:47:06.039Z,4.53
2023-05-24T06:49:34.173Z,3.97
2023-05-24T06:52:03.140Z,4.00
2023-05-24T06:54:30.813Z,3.57
2023-05-24T06:56:58.991Z,3.93
2023-05-24T06:59:27.229Z,3.87
2023-05-24T07:01:59.401Z,4.20
2023-05-24T07:04:28.463Z,4.13
2023-05-24T07:06:57.736Z,3.93
2023-05-24T07:09:26.612Z,3.80
2023-05-24T07:11:54.541Z,4.10
2023-05-24T07:14:23.168Z,3.63
2023-05-24T07:16:50.895Z,4.17
2023-05-24T07:19:18.533Z,3.50
2023-05-24T07:21:46.140Z,4.00
2023-05-24T07:24:16.083Z,3.97
2023-05-24T07:26:45.253Z,4.00
2023-05-24T07:29:12.852Z,4.03
2023-05-24T07:31:40.597Z,4.20
2023-05-24T07:34:08.204Z,3.80
2023-05-24T07:36:35.775Z,4.00
2023-05-24T07:39:04.796Z,3.60
2023-05-24T07:41:33.366Z,4.10
2023-05-24T07:44:02.323Z,4.07
2023-05-24T07:46:29.947Z,3.60
2023-05-24T07:48:57.519Z,3.40
2023-05-24T07:51:25.670Z,4.17
2023-05-24T07:53:53.266Z,3.63
2023-05-24T07:56:21.254Z,4.00
2023-05-24T07:58:49.241Z,4.07
2023-05-24T08:01:19.203Z,4.17
2023-05-24T08:03:47.778Z,4.00
2023-05-24T08:06:15.844Z,4.03
2023-05-24T08:08:43.576Z,3.70
2023-05-24T08:11:11.102Z,3.60
2023-05-24T08:13:38.726Z,3.73
2023-05-24T08:16:06.668Z,4.00
2023-05-24T08:18:36.063Z,3.70
2023-05-24T08:21:03.691Z,3.97
2023-05-24T08:23:31.242Z,3.67
2023-05-24T08:25:59.459Z,3.90
2023-05-24T08:28:27.128Z,4.93
2023-05-24T08:30:54.834Z,3.83
2023-05-24T08:33:23.268Z,3.33
2023-05-24T08:35:52.893Z,3.70
2023-05-24T08:38:20.495Z,3.97
2023-05-24T08:40:48.912Z,3.30
2023-05-24T08:43:17.038Z,4.00
2023-05-24T08:45:45.371Z,3.97
2023-05-24T08:48:14.399Z,4.70
2023-05-24T08:50:43.237Z,3.30
2023-05-24T08:53:12.915Z,3.90
2023-05-24T08:55:40.701Z,4.03
2023-05-24T08:58:08.581Z,3.67
2023-05-24T09:00:36.153Z,4.10
2023-05-24T09:03:04.118Z,4.30
2023-05-24T09:05:31.986Z,4.10
2023-05-24T09:08:00.982Z,3.90
2023-05-24T09:10:35.553Z,3.60
2023-05-24T09:13:13.190Z,4.10
2023-05-24T09:15:41.463Z,3.93
2023-05-24T09:18:09.310Z,3.80
2023-05-24T09:20:37.165Z,3.67
2023-05-24T09:23:05.605Z,3.67
2023-05-24T09:25:34.620Z,3.40
2023-05-24T09:28:07.143Z,3.97
2023-05-24T09:30:34.935Z,4.70
2023-05-24T09:33:03.992Z,4.00
2023-05-24T09:35:31.718Z,4.27
2023-05-24T09:38:00.680Z,3.50
2023-05-24T09:40:28.884Z,3.80
2023-05-24T09:43:09.824Z,4.23
2023-05-24T09:45:42.878Z,4.17
2023-05-24T09:48:11.660Z,3.60
2023-05-24T09:50:39.250Z,3.77
2023-05-24T09:53:07.106Z,4.17
2023-05-24T09:55:37.099Z,3.90
2023-05-24T09:58:05.237Z,3.60
2023-05-24T10:00:36.711Z,3.80
2023-05-24T10:03:05.285Z,3.90
2023-05-24T10:05:33.416Z,3.90
2023-05-24T10:08:01.547Z,4.07
2023-05-24T10:10:30.173Z,4.10
2023-05-24T10:12:57.934Z,3.60
2023-05-24T10:15:26.200Z,3.63
2023-05-24T10:17:56.113Z,4.30
2023-05-24T10:20:24.061Z,3.60
2023-05-24T10:22:53.350Z,4.00
2023-05-24T10:25:22.958Z,3.90
2023-05-24T10:27:52.696Z,3.80
2023-05-24T10:30:24.376Z,3.53
2023-05-24T10:32:53.092Z,3.83
2023-05-24T10:35:23.880Z,3.63
2023-05-24T10:37:52.378Z,3.60
2023-05-24T10:40:21.068Z,3.80
2023-05-24T10:42:48.863Z,3.50
2023-05-24T10:45:35.386Z,3.33
2023-05-24T10:48:10.286Z,3.30
2023-05-24T10:50:39.283Z,3.07
2023-05-24T10:53:13.606Z,3.40
2023-05-24T10:55:53.735Z,3.20
2023-05-24T10:58:21.805Z,3.63
2023-05-24T11:00:53.432Z,3.70
2023-05-24T11:03:24.875Z,2.90
2023-05-24T11:05:55.563Z,3.40
2023-05-24T11:08:27.488Z,3.30
2023-05-24T11:11:18.946Z,3.80
2023-05-24T11:13:57.108Z,3.10
2023-05-24T11:16:34.152Z,3.03
2023-05-24T11:19:12.286Z,3.07
2023-05-24T11:21:42.050Z,3.63
2023-05-24T11:24:11.702Z,3.47
2023-05-24T11:26:39.195Z,3.90
2023-05-24T11:29:07.413Z,3.50
2023-05-24T11:31:37.905Z,3.20
2023-05-24T11:34:11.867Z,3.70
2023-05-24T11:36:39.688Z,3.10
2023-05-24T11:39:09.802Z,3.10
2023-05-24T11:41:38.407Z,3.70
2023-05-24T11:44:06.277Z,4.10
2023-05-24T11:46:36.212Z,3.40
2023-05-24T11:49:06.788Z,4.00
2023-05-24T11:51:34.945Z,3.80
2023-05-24T11:54:02.786Z,3.37
2023-05-24T11:56:33.912Z,3.97
2023-05-24T11:59:08.318Z,3.63
2023-05-24T12:01:35.975Z,3.73
2023-05-24T12:04:04.260Z,3.83
2023-05-24T12:06:36.982Z,3.57
2023-05-24T12:09:11.027Z,3.80
2023-05-24T12:11:44.352Z,3.90
2023-05-24T12:14:15.193Z,3.90
2023-05-24T12:16:43.359Z,3.87
2023-05-24T12:19:30.911Z,3.70
2023-05-24T12:22:00.755Z,3.73
2023-05-24T12:24:28.771Z,3.93
2023-05-24T12:27:01.813Z,3.80
2023-05-24T12:29:33.682Z,3.93
2023-05-24T12:32:01.299Z,3.70
2023-05-24T12:34:28.891Z,4.30
2023-05-24T12:36:57.345Z,3.50
2023-05-24T12:39:30.994Z,4.20
2023-05-24T12:42:01.782Z,4.70
2023-05-24T12:44:30.444Z,4.60
2023-05-24T12:46:58.541Z,4.13
2023-05-24T12:49:27.027Z,3.97
2023-05-24T12:51:55.436Z,4.43
2023-05-24T12:54:24.050Z,3.93
2023-05-24T12:56:54.107Z,4.80
2023-05-24T12:59:24.711Z,4.33
2023-05-24T13:01:52.661Z,4.03
2023-05-24T13:04:21.052Z,3.53
2023-05-24T13:06:49.334Z,4.00
2023-05-24T13:09:19.420Z,4.20
2023-05-24T13:11:47.378Z,4.20
2023-05-24T13:14:15.537Z,4.50
2023-05-24T13:16:45.142Z,4.00
2023-05-24T13:19:12.857Z,4.10
2023-05-24T13:21:40.480Z,4.63
2023-05-24T13:24:08.710Z,4.30
2023-05-24T13:26:39.432Z,4.67
2023-05-24T13:29:32.229Z,3.80
2023-05-24T13:31:56.612Z,3.80
2023-05-24T13:34:24.657Z,4.30
2023-05-24T13:36:52.553Z,4.07
2023-05-24T13:39:20.445Z,3.97
2023-05-24T13:41:48.263Z,4.20
2023-05-24T13:44:16.638Z,3.80
2023-05-24T13:46:44.550Z,4.17
2023-05-24T13:49:13.622Z,4.30
2023-05-24T13:51:41.310Z,4.53
2023-05-24T13:54:09.208Z,3.80
2023-05-24T13:56:37.208Z,6.57
2023-05-24T13:59:05.184Z,6.00
2023-05-24T14:01:33.132Z,5.67
2023-05-24T14:04:00.816Z,4.53
2023-05-24T14:06:29.819Z,3.90
2023-05-24T14:08:57.409Z,3.70
2023-05-24T14:11:25.488Z,3.97
2023-05-24T14:16:23.855Z,4.13
2023-05-24T14:18:51.807Z,3.37
2023-05-24T14:21:19.475Z,3.57
2023-05-24T14:23:48.473Z,4.23
2023-05-24T14:26:16.414Z,4.10
2023-05-24T14:28:43.912Z,4.43
2023-05-24T14:31:11.859Z,4.63
2023-05-24T14:33:39.416Z,3.93
2023-05-24T14:36:07.430Z,4.20
2023-05-24T14:38:34.942Z,4.40
2023-05-24T14:41:03.928Z,3.80
2023-05-24T14:43:31.674Z,3.80
2023-05-24T14:45:59.297Z,4.10
2023-05-24T14:48:26.892Z,3.80
2023-05-24T14:50:54.367Z,3.40
2023-05-24T14:53:21.911Z,4.00
2023-05-24T14:55:49.665Z,3.20
2023-05-24T14:58:18.732Z,3.60
2023-05-24T15:00:46.500Z,3.50
2023-05-24T15:03:14.992Z,4.13
2023-05-24T15:05:43.160Z,3.70
2023-05-24T15:08:11.441Z,4.03
2023-05-24T15:10:40.255Z,4.23
2023-05-24T15:13:08.214Z,3.90
2023-05-24T15:15:37.102Z,4.47
2023-05-24T15:18:04.764Z,4.80
2023-05-24T15:20:41.024Z,3.77
2023-05-24T15:23:10.755Z,4.10
2023-05-24T15:25:38.425Z,3.63
2023-05-24T15:28:06.092Z,4.50
2023-05-24T15:30:33.771Z,4.23
2023-05-24T15:33:02.750Z,4.43
2023-05-24T15:35:30.350Z,4.33
2023-05-24T15:37:57.883Z,3.70
2023-05-24T15:40:25.641Z,3.83
2023-05-24T15:42:53.773Z,4.37
2023-05-24T15:45:21.314Z,3.77
2023-05-24T15:47:48.851Z,4.07
2023-05-24T15:50:23.658Z,4.87
2023-05-24T15:52:56.390Z,4.63
2023-05-24T15:55:24.189Z,4.87
2023-05-24T15:57:51.751Z,4.20
2023-05-24T16:00:19.697Z,4.20
2023-05-24T16:02:47.460Z,4.27
2023-05-24T16:05:15.140Z,4.10
2023-05-24T16:07:44.918Z,3.77
2023-05-24T16:10:12.575Z,3.80
2023-05-24T16:12:40.467Z,4.00
2023-05-24T16:15:08.883Z,3.80
2023-05-24T16:17:36.626Z,3.80
2023-05-24T16:20:04.667Z,3.67
2023-05-24T16:22:34.642Z,3.67
2023-05-24T16:25:03.574Z,7.27
2023-05-24T16:27:31.136Z,14.27
2023-05-24T16:29:58.651Z,6.63
2023-05-24T16:32:26.237Z,5.00
2023-05-24T16:34:57.069Z,4.00
2023-05-24T16:37:25.239Z,3.90
2023-05-24T16:39:53.044Z,4.03
2023-05-24T16:42:22.037Z,5.17
2023-05-24T16:44:49.596Z,3.60
2023-05-24T16:47:17.402Z,3.50
2023-05-24T16:49:45.022Z,4.07
2023-05-24T16:52:12.524Z,3.57
2023-05-24T16:54:40.543Z,3.20
2023-05-24T16:57:08.123Z,4.03
2023-05-24T16:59:38.755Z,3.90
2023-05-24T17:02:06.598Z,3.60
2023-05-24T17:04:34.063Z,3.47
2023-05-24T17:07:01.609Z,3.50
2023-05-24T17:09:29.236Z,3.80
2023-05-24T17:11:56.776Z,3.50
2023-05-24T17:14:24.229Z,4.10
2023-05-24T17:16:53.615Z,3.57
2023-05-24T17:19:21.502Z,3.80
2023-05-24T17:21:49.156Z,3.20
2023-05-24T17:24:16.778Z,3.87
2023-05-24T17:26:45.420Z,3.70
2023-05-24T17:29:13.111Z,3.90
2023-05-24T17:31:41.984Z,4.13
2023-05-24T17:34:11.046Z,4.10
2023-05-24T17:36:38.631Z,3.90
2023-05-24T17:39:06.701Z,4.37
2023-05-24T17:41:34.214Z,4.47
2023-05-24T17:44:01.790Z,3.70
2023-05-24T17:46:29.402Z,4.73
2023-05-24T17:48:57.048Z,4.07
2023-05-24T17:51:26.049Z,4.20
2023-05-24T17:53:53.646Z,5.03
2023-05-24T17:56:22.388Z,4.30
2023-05-24T17:58:50.738Z,4.97
2023-05-24T18:01:18.346Z,5.20
2023-05-24T18:03:46.505Z,4.37
2023-05-24T18:06:14.039Z,4.23
2023-05-24T18:08:43.919Z,5.20
2023-05-24T18:11:13.138Z,5.57
2023-05-24T18:13:41.758Z,5.10
2023-05-24T18:16:10.232Z,5.60
2023-05-24T18:18:38.871Z,5.10
2023-05-24T18:21:06.751Z,5.70
2023-05-24T18:23:37.553Z,5.90
2023-05-24T18:26:09.444Z,5.00
2023-05-24T18:28:38.010Z,5.27
2023-05-24T18:31:08.269Z,5.50
2023-05-24T18:33:36.009Z,5.70
2023-05-24T18:36:07.243Z,5.73
2023-05-24T18:38:35.042Z,5.43
2023-05-24T18:41:05.688Z,5.43
2023-05-24T18:43:35.310Z,5.87
2023-05-24T18:46:02.856Z,5.17
2023-05-24T18:48:30.415Z,5.50
2023-05-24T18:50:58.021Z,5.27
2023-05-24T18:53:25.984Z,5.93
2023-05-24T18:55:53.535Z,5.67
2023-05-24T18:58:21.168Z,5.13
2023-05-24T19:00:50.540Z,5.37
2023-05-24T19:03:18.191Z,6.00
2023-05-24T19:05:45.884Z,5.30
2023-05-24T19:08:13.724Z,5.27
2023-05-24T19:10:41.285Z,5.40
2023-05-24T19:13:08.849Z,5.20
2023-05-24T19:15:37.298Z,5.23
2023-05-24T19:18:06.733Z,5.60
2023-05-24T19:20:34.394Z,5.87
2023-05-24T19:23:02.041Z,5.30
2023-05-24T19:25:31.198Z,5.10
2023-05-24T19:28:00.760Z,5.50
2023-05-24T19:30:28.678Z,5.27
2023-05-24T19:32:56.296Z,5.70
2023-05-24T19:35:25.382Z,5.70
2023-05-24T19:37:53.539Z,5.73
2023-05-24T19:40:21.261Z,5.47
2023-05-24T19:42:48.920Z,5.47
2023-05-24T19:45:16.599Z,5.67
2023-05-24T19:47:44.179Z,5.50
2023-05-24T19:50:12.413Z,5.90
2023-05-24T19:52:41.384Z,5.60
2023-05-24T19:55:09.496Z,5.43
2023-05-24T19:57:37.015Z,5.57
2023-05-24T20:00:05.411Z,5.40
2023-05-24T20:02:35.540Z,6.10
2023-05-24T20:05:04.712Z,5.30
2023-05-24T20:07:32.225Z,6.83
2023-05-24T20:10:01.492Z,5.33
2023-05-24T20:12:30.740Z,5.87
2023-05-24T20:14:58.453Z,5.57
2023-05-24T20:17:25.984Z,5.40
2023-05-24T20:19:53.563Z,5.93
2023-05-24T20:22:21.247Z,5.83
2023-05-24T20:24:48.791Z,5.30
2023-05-24T20:27:17.770Z,5.90
2023-05-24T20:29:45.354Z,5.37
2023-05-24T20:32:12.975Z,5.47
2023-05-24T20:34:40.505Z,6.13
2023-05-24T20:37:08.178Z,5.57
2023-05-24T20:39:35.666Z,5.47
2023-05-24T20:42:03.184Z,4.90
2023-05-24T20:44:32.687Z,6.50
2023-05-24T20:47:00.261Z,6.23
2023-05-24T20:49:27.828Z,6.80
2023-05-24T20:51:55.364Z,5.97
2023-05-24T20:54:22.941Z,5.87
2023-05-24T20:56:50.635Z,5.60
2023-05-24T20:59:18.354Z,5.83
2023-05-24T21:01:47.526Z,5.33
2023-05-24T21:04:15.443Z,5.37
2023-05-24T21:06:43.065Z,5.60
2023-05-24T21:09:11.022Z,5.73
2023-05-24T21:11:39.878Z,4.80
2023-05-24T21:14:09.471Z,5.10
2023-05-24T21:16:38.074Z,4.73
2023-05-24T21:19:10.673Z,5.50
2023-05-24T21:21:41.525Z,5.03
2023-05-24T21:24:09.818Z,4.90
2023-05-24T21:26:45.838Z,4.93
2023-05-24T21:29:15.165Z,5.90
2023-05-24T21:31:43.963Z,6.93
2023-05-24T21:34:13.471Z,6.80
2023-05-24T21:36:41.626Z,6.57
2023-05-24T21:39:10.044Z,7.20
2023-05-24T21:41:41.100Z,8.10
2023-05-24T21:44:09.274Z,6.73
2023-05-24T21:46:37.160Z,6.27
2023-05-24T21:49:04.752Z,6.27
2023-05-24T21:51:33.771Z,8.60
2023-05-24T21:54:01.637Z,17.30
2023-05-24T21:56:29.149Z,17.37
2023-05-24T21:58:56.656Z,12.20
2023-05-24T22:01:24.239Z,9.30
2023-05-24T22:03:51.881Z,8.10
2023-05-24T22:06:19.456Z,7.50
2023-05-24T22:08:48.395Z,7.07
2023-05-24T22:11:16.473Z,6.37
2023-05-24T22:13:44.003Z,5.90
2023-05-24T22:16:11.803Z,7.53
2023-05-24T22:18:39.505Z,6.60
2023-05-24T22:21:07.251Z,6.60
2023-05-24T22:23:34.842Z,6.27
2023-05-24T22:26:03.794Z,6.00
2023-05-24T22:28:34.040Z,6.00
2023-05-24T22:31:03.120Z,6.03
2023-05-24T22:33:30.622Z,5.40
2023-05-24T22:35:58.210Z,5.50
2023-05-24T22:38:25.784Z,6.03
2023-05-24T22:40:53.327Z,5.30
2023-05-24T22:43:22.182Z,5.20
2023-05-24T22:45:49.705Z,5.87
2023-05-24T22:48:18.195Z,5.30
2023-05-24T22:50:45.901Z,5.67
2023-05-24T22:53:13.420Z,4.57
2023-05-24T22:55:41.230Z,4.83
2023-05-24T22:58:08.767Z,4.40
2023-05-24T23:00:37.638Z,5.00
2023-05-24T23:03:05.636Z,5.07
2023-05-24T23:05:34.655Z,4.73
2023-05-24T23:08:03.506Z,4.87
2023-05-24T23:10:31.322Z,4.60
2023-05-24T23:12:59.099Z,5.03
2023-05-24T23:15:29.173Z,5.50
2023-05-24T23:17:58.287Z,4.37
2023-05-24T23:20:26.006Z,4.50
2023-05-24T23:22:53.546Z,5.13
2023-05-24T23:25:21.035Z,4.93
2023-05-24T23:27:48.580Z,4.87
2023-05-24T23:30:16.231Z,4.93
2023-05-24T23:32:43.940Z,5.07
2023-05-24T23:35:12.975Z,4.93
2023-05-24T23:37:40.492Z,4.80
2023-05-24T23:40:08.598Z,4.60
2023-05-24T23:42:36.367Z,4.50
2023-05-24T23:45:03.848Z,4.70
2023-05-24T23:47:31.418Z,4.30
2023-05-24T23:49:59.033Z,4.57
2023-05-24T23:52:28.223Z,4.53
2023-05-24T23:54:56.082Z,4.80
2023-05-24T23:57:24.946Z,4.87
2023-05-24T23:59:52.520Z,5.07
